Time;durP1;ratioP1;P1;durP2;ratioP2;P2;SDS_P1;SDS_P2;PMS_P1;PMS_P2;Temp;Humidity;BMP_temperature;BMP_pressure;BME280_temperature;BME280_humidity;BME280_pressure;Samples;Min_cycle;Max_cycle;Signal;HPM_P1;HPM_P2
2022/09/24 00:00:49;;;;;;;7.50;3.43;;;;;;;;;;4990490;28;20224;-73
2022/09/24 00:03:18;;;;;;;3.40;3.20;;;;;;;;;;5007345;28;20237;-74
2022/09/24 00:05:44;;;;;;;3.80;3.50;;;;;;;;;;4970408;28;20221;-74
2022/09/24 00:08:14;;;;;;;4.43;4.03;;;;;;;;;;4982700;28;20239;-73
2022/09/24 00:10:45;;;;;;;4.07;3.77;;;;;;;;;;4995511;28;20229;-74
2022/09/24 00:13:13;;;;;;;4.30;3.77;;;;;;;;;;4994181;28;20296;-74
2022/09/24 00:15:42;;;;;;;3.63;3.33;;;;;;;;;;4998012;28;20224;-76
2022/09/24 00:18:10;;;;;;;3.97;3.77;;;;;;;;;;5012664;28;20308;-75
2022/09/24 00:20:38;;;;;;;3.77;3.57;;;;;;;;;;4965757;28;20217;-74
2022/09/24 00:23:05;;;;;;;4.03;3.73;;;;;;;;;;4946880;28;20232;-75
2022/09/24 00:28:16;;;;;;;4.70;3.90;;;;;;;;;;4966577;28;20315;-75
2022/09/24 00:30:44;;;;;;;4.23;3.90;;;;;;;;;;5000030;28;20299;-76
2022/09/24 00:33:11;;;;;;;3.50;3.20;;;;;;;;;;5012114;28;20224;-75
2022/09/24 00:35:37;;;;;;;4.00;3.70;;;;;;;;;;4962651;28;20227;-76
2022/09/24 00:38:05;;;;;;;4.70;4.37;;;;;;;;;;4981382;28;20307;-75
2022/09/24 00:40:38;;;;;;;4.57;4.17;;;;;;;;;;4998118;28;20219;-75
2022/09/24 00:43:29;;;;;;;4.90;4.50;;;;;;;;;;4982352;28;20256;-75
2022/09/24 00:46:14;;;;;;;4.20;3.90;;;;;;;;;;4990178;28;20763;-75
2022/09/24 00:48:41;;;;;;;4.93;4.53;;;;;;;;;;4995083;28;20228;-75
2022/09/24 00:51:07;;;;;;;5.07;4.57;;;;;;;;;;4978630;28;20229;-75
2022/09/24 00:53:32;;;;;;;4.90;4.40;;;;;;;;;;4993465;28;20849;-77
2022/09/24 00:56:04;;;;;;;4.40;4.10;;;;;;;;;;4978710;28;20240;-75
2022/09/24 00:58:30;;;;;;;4.90;4.50;;;;;;;;;;4978930;28;20256;-75
2022/09/24 01:01:06;;;;;;;4.90;4.53;;;;;;;;;;4975230;28;20328;-76
2022/09/24 01:03:32;;;;;;;4.70;4.30;;;;;;;;;;4965511;28;20905;-76
2022/09/24 01:05:57;;;;;;;9.63;5.17;;;;;;;;;;4978452;28;20637;-76
2022/09/24 01:08:25;;;;;;;4.97;4.57;;;;;;;;;;4979274;28;20240;-74
2022/09/24 01:11:11;;;;;;;5.60;5.10;;;;;;;;;;4975265;28;20312;-75
2022/09/24 01:13:54;;;;;;;5.27;4.87;;;;;;;;;;5009876;28;20688;-75
2022/09/24 01:16:30;;;;;;;5.83;5.33;;;;;;;;;;4986026;28;20224;-76
2022/09/24 01:19:10;;;;;;;5.57;5.17;;;;;;;;;;4988261;28;20770;-75
2022/09/24 01:21:56;;;;;;;5.10;4.77;;;;;;;;;;5009229;28;20635;-75
2022/09/24 01:24:28;;;;;;;5.63;5.13;;;;;;;;;;4989519;28;20250;-76
2022/09/24 01:27:07;;;;;;;5.57;5.17;;;;;;;;;;5012194;28;20225;-75
2022/09/24 01:29:40;;;;;;;5.60;5.20;;;;;;;;;;4994606;28;20579;-75
2022/09/24 01:32:14;;;;;;;6.00;5.50;;;;;;;;;;4995052;28;20323;-75
2022/09/24 01:34:52;;;;;;;6.30;5.90;;;;;;;;;;5007327;28;20229;-75
2022/09/24 01:37:21;;;;;;;6.70;6.20;;;;;;;;;;4972909;28;20244;-76
2022/09/24 01:39:50;;;;;;;6.50;5.90;;;;;;;;;;4994228;28;20239;-75
2022/09/24 01:42:19;;;;;;;6.27;5.77;;;;;;;;;;4985588;28;20220;-76
2022/09/24 01:44:49;;;;;;;6.13;5.63;;;;;;;;;;4997263;28;20256;-75
2022/09/24 01:47:20;;;;;;;6.67;6.17;;;;;;;;;;4999158;28;20220;-76
2022/09/24 01:49:45;;;;;;;6.33;5.83;;;;;;;;;;4999266;28;20279;-76
2022/09/24 01:52:14;;;;;;;6.87;6.20;;;;;;;;;;4980726;28;20232;-76
2022/09/24 01:54:41;;;;;;;6.73;6.20;;;;;;;;;;4977589;28;20221;-76
2022/09/24 01:57:06;;;;;;;7.13;6.63;;;;;;;;;;4995546;28;20323;-77
2022/09/24 01:59:41;;;;;;;7.23;6.63;;;;;;;;;;4994096;28;20229;-76
2022/09/24 02:02:09;;;;;;;7.60;7.00;;;;;;;;;;4977683;28;20942;-76
2022/09/24 02:04:40;;;;;;;8.07;7.47;;;;;;;;;;4994807;28;20231;-76
2022/09/24 02:07:12;;;;;;;7.37;6.70;;;;;;;;;;4975476;28;20227;-76
2022/09/24 02:09:39;;;;;;;7.77;7.00;;;;;;;;;;4994100;28;20216;-75
2022/09/24 02:12:22;;;;;;;8.03;7.30;;;;;;;;;;4991115;28;20221;-77
2022/09/24 02:14:53;;;;;;;8.60;7.77;;;;;;;;;;4998905;28;20225;-76
2022/09/24 02:17:21;;;;;;;8.03;7.43;;;;;;;;;;4991627;28;20268;-76
2022/09/24 02:19:46;;;;;;;7.50;6.90;;;;;;;;;;4993909;28;20229;-76
2022/09/24 02:22:14;;;;;;;7.43;6.93;;;;;;;;;;4992304;28;20240;-77
2022/09/24 02:24:49;;;;;;;7.90;7.30;;;;;;;;;;4990603;28;20224;-76
2022/09/24 02:27:17;;;;;;;8.10;7.50;;;;;;;;;;4990755;28;20236;-76
2022/09/24 02:29:47;;;;;;;8.33;7.67;;;;;;;;;;5007456;28;20217;-76
2022/09/24 02:32:14;;;;;;;8.23;7.53;;;;;;;;;;4978104;28;20316;-77
2022/09/24 02:34:46;;;;;;;9.17;8.43;;;;;;;;;;4994220;28;20212;-77
2022/09/24 02:37:16;;;;;;;9.10;8.40;;;;;;;;;;4979453;28;20209;-76
2022/09/24 02:39:43;;;;;;;8.10;7.20;;;;;;;;;;4980509;28;20225;-76
2022/09/24 02:42:10;;;;;;;7.80;7.10;;;;;;;;;;4995100;28;20232;-76
2022/09/24 02:44:37;;;;;;;8.03;7.33;;;;;;;;;;4960761;28;20236;-77
2022/09/24 02:47:10;;;;;;;7.93;7.27;;;;;;;;;;4994720;28;20683;-76
2022/09/24 02:49:38;;;;;;;8.67;8.07;;;;;;;;;;4997019;28;20224;-77
2022/09/24 02:52:09;;;;;;;9.50;8.80;;;;;;;;;;4982702;28;20263;-76
2022/09/24 02:54:37;;;;;;;10.17;9.47;;;;;;;;;;4963676;28;20221;-76
2022/09/24 02:57:05;;;;;;;10.30;9.37;;;;;;;;;;4977945;28;20217;-76
2022/09/24 02:59:33;;;;;;;10.20;9.40;;;;;;;;;;4980457;28;20319;-76
2022/09/24 03:02:01;;;;;;;10.40;9.60;;;;;;;;;;4993060;28;20238;-76
2022/09/24 03:04:30;;;;;;;11.00;9.50;;;;;;;;;;4995837;28;20706;-77
2022/09/24 03:06:58;;;;;;;10.43;9.53;;;;;;;;;;4982379;28;20217;-76
2022/09/24 03:09:26;;;;;;;10.07;9.27;;;;;;;;;;4945375;28;20216;-77
2022/09/24 03:11:56;;;;;;;11.33;10.43;;;;;;;;;;4959759;28;20231;-77
2022/09/24 03:14:24;;;;;;;13.37;12.10;;;;;;;;;;4985279;28;20775;-77
2022/09/24 03:16:50;;;;;;;11.27;10.37;;;;;;;;;;4992723;28;20336;-76
2022/09/24 03:19:22;;;;;;;12.33;11.33;;;;;;;;;;4963926;28;20241;-76
2022/09/24 03:21:48;;;;;;;12.73;11.57;;;;;;;;;;4995317;28;20260;-77
2022/09/24 03:24:15;;;;;;;13.77;12.67;;;;;;;;;;4990429;28;20228;-77
2022/09/24 03:26:41;;;;;;;14.77;13.27;;;;;;;;;;4986681;28;20244;-77
2022/09/24 03:29:10;;;;;;;14.20;13.10;;;;;;;;;;4974091;28;20710;-77
2022/09/24 03:31:40;;;;;;;14.77;13.53;;;;;;;;;;4991853;28;20690;-76
2022/09/24 03:34:08;;;;;;;15.40;13.90;;;;;;;;;;5008443;28;20725;-77
2022/09/24 03:36:34;;;;;;;16.00;14.50;;;;;;;;;;4994405;28;20589;-77
2022/09/24 03:39:04;;;;;;;14.70;13.60;;;;;;;;;;5001072;28;20233;-76
2022/09/24 03:41:34;;;;;;;15.80;14.50;;;;;;;;;;4991735;28;20713;-76
2022/09/24 03:44:02;;;;;;;15.77;14.57;;;;;;;;;;4968360;28;20836;-77
2022/09/24 03:46:33;;;;;;;17.70;16.17;;;;;;;;;;4982728;28;20221;-76
2022/09/24 03:49:00;;;;;;;16.87;15.43;;;;;;;;;;5013620;28;20235;-76
2022/09/24 03:51:26;;;;;;;18.37;16.83;;;;;;;;;;4994847;28;20239;-77
2022/09/24 03:53:51;;;;;;;19.63;17.83;;;;;;;;;;4979353;28;20229;-77
2022/09/24 03:56:18;;;;;;;18.73;17.20;;;;;;;;;;4965649;28;20244;-77
2022/09/24 03:58:46;;;;;;;19.47;17.97;;;;;;;;;;4995659;28;20233;-76
2022/09/24 04:01:19;;;;;;;18.90;17.30;;;;;;;;;;5011576;28;20224;-76
2022/09/24 04:03:47;;;;;;;18.23;16.90;;;;;;;;;;5011834;28;20224;-76
2022/09/24 04:06:17;;;;;;;18.03;16.63;;;;;;;;;;4977218;28;20699;-74
2022/09/24 04:08:43;;;;;;;18.13;16.53;;;;;;;;;;4983373;28;20220;-75
2022/09/24 04:11:13;;;;;;;19.67;17.97;;;;;;;;;;4997327;28;20216;-74
2022/09/24 04:13:38;;;;;;;17.40;16.03;;;;;;;;;;4996192;28;20221;-75
2022/09/24 04:16:04;;;;;;;18.43;16.93;;;;;;;;;;4996757;28;20319;-75
2022/09/24 04:18:30;;;;;;;20.03;18.23;;;;;;;;;;4996590;28;20737;-74
2022/09/24 04:20:58;;;;;;;19.50;17.63;;;;;;;;;;4996515;28;20221;-73
2022/09/24 04:23:27;;;;;;;20.63;18.57;;;;;;;;;;4997067;28;20224;-75
2022/09/24 04:25:59;;;;;;;19.60;18.00;;;;;;;;;;5009939;28;20225;-75
2022/09/24 04:28:25;;;;;;;19.73;18.13;;;;;;;;;;4985897;28;20223;-75
2022/09/24 04:30:52;;;;;;;20.53;18.73;;;;;;;;;;4982422;28;20233;-75
2022/09/24 04:33:18;;;;;;;20.73;19.03;;;;;;;;;;4997894;28;20274;-75
2022/09/24 04:35:46;;;;;;;21.27;19.57;;;;;;;;;;4994564;28;20271;-75
2022/09/24 04:38:12;;;;;;;20.97;19.07;;;;;;;;;;4992861;28;20232;-75
2022/09/24 04:40:38;;;;;;;19.77;18.17;;;;;;;;;;4963528;28;20607;-75
2022/09/24 04:43:06;;;;;;;20.77;18.87;;;;;;;;;;4976666;28;20728;-75
2022/09/24 04:45:32;;;;;;;21.73;19.53;;;;;;;;;;5008938;28;20312;-75
2022/09/24 04:47:58;;;;;;;22.93;21.13;;;;;;;;;;4981205;28;20225;-75
2022/09/24 04:50:32;;;;;;;22.03;20.23;;;;;;;;;;5012961;28;20703;-75
2022/09/24 04:53:00;;;;;;;21.93;20.23;;;;;;;;;;4992935;28;20230;-75
2022/09/24 04:55:26;;;;;;;22.03;20.03;;;;;;;;;;4996988;28;20244;-74
2022/09/24 04:57:55;;;;;;;22.47;20.67;;;;;;;;;;4964512;28;20713;-75
2022/09/24 05:00:20;;;;;;;22.07;20.13;;;;;;;;;;4977836;28;20221;-75
2022/09/24 05:02:56;;;;;;;22.33;20.53;;;;;;;;;;4977681;28;20255;-75
2022/09/24 05:05:22;;;;;;;20.93;19.23;;;;;;;;;;4994483;28;20213;-75
2022/09/24 05:07:50;;;;;;;20.77;19.17;;;;;;;;;;4963230;28;20709;-75
2022/09/24 05:10:20;;;;;;;20.67;18.97;;;;;;;;;;4967949;28;20224;-76
2022/09/24 05:12:48;;;;;;;21.03;19.23;;;;;;;;;;4999007;28;20626;-76
2022/09/24 05:15:18;;;;;;;21.17;19.47;;;;;;;;;;4994499;28;20691;-75
2022/09/24 05:17:44;;;;;;;20.43;18.93;;;;;;;;;;4984371;28;20714;-76
2022/09/24 05:20:12;;;;;;;19.87;18.27;;;;;;;;;;4996847;28;20256;-76
2022/09/24 05:22:49;;;;;;;21.67;19.77;;;;;;;;;;4963617;28;20236;-75
2022/09/24 05:25:16;;;;;;;20.67;18.97;;;;;;;;;;4977881;28;20221;-76
2022/09/24 05:27:49;;;;;;;20.70;19.03;;;;;;;;;;4998435;28;20636;-76
2022/09/24 05:30:17;;;;;;;20.70;18.97;;;;;;;;;;4986608;28;20263;-75
2022/09/24 05:32:43;;;;;;;18.77;17.33;;;;;;;;;;4964826;28;20308;-75
2022/09/24 05:35:11;;;;;;;19.03;17.53;;;;;;;;;;4963156;28;20208;-74
2022/09/24 05:37:40;;;;;;;19.70;18.13;;;;;;;;;;4994573;28;20240;-75
2022/09/24 05:43:00;;;;;;;19.43;17.80;;;;;;;;;;4995293;28;20220;-76
2022/09/24 05:45:26;;;;;;;20.53;18.57;;;;;;;;;;4976752;28;20330;-76
2022/09/24 05:47:53;;;;;;;20.93;19.03;;;;;;;;;;4995429;28;20217;-75
2022/09/24 05:50:20;;;;;;;19.80;18.20;;;;;;;;;;4979157;28;20877;-74
2022/09/24 05:52:47;;;;;;;20.40;18.50;;;;;;;;;;4976306;28;20229;-75
2022/09/24 05:55:13;;;;;;;19.73;18.00;;;;;;;;;;4977994;28;20300;-75
2022/09/24 05:57:41;;;;;;;20.30;18.37;;;;;;;;;;4961984;28;20849;-75
2022/09/24 06:00:07;;;;;;;20.03;18.50;;;;;;;;;;4999217;28;20235;-75
2022/09/24 06:02:38;;;;;;;20.50;18.87;;;;;;;;;;4980704;28;20235;-74
2022/09/24 06:05:04;;;;;;;20.77;18.83;;;;;;;;;;4995459;28;20252;-75
2022/09/24 06:07:30;;;;;;;21.77;19.83;;;;;;;;;;4994559;28;20229;-75
2022/09/24 06:09:58;;;;;;;19.93;18.33;;;;;;;;;;4994142;28;20215;-75
2022/09/24 06:12:25;;;;;;;20.27;18.60;;;;;;;;;;5008846;28;20243;-75
2022/09/24 06:14:54;;;;;;;19.50;17.90;;;;;;;;;;4995256;28;20292;-75
2022/09/24 06:17:20;;;;;;;20.90;19.10;;;;;;;;;;4997843;28;20279;-75
2022/09/24 06:19:46;;;;;;;19.20;17.60;;;;;;;;;;4976922;28;20221;-75
2022/09/24 06:22:13;;;;;;;19.43;17.70;;;;;;;;;;4995392;28;20247;-75
2022/09/24 06:24:44;;;;;;;18.67;17.10;;;;;;;;;;4974966;28;20232;-75
2022/09/24 06:27:12;;;;;;;18.27;16.77;;;;;;;;;;4977676;28;20228;-75
2022/09/24 06:29:37;;;;;;;18.33;16.73;;;;;;;;;;4976461;28;20600;-75
2022/09/24 06:32:07;;;;;;;17.97;16.37;;;;;;;;;;4967801;28;20236;-74
2022/09/24 06:34:34;;;;;;;16.77;15.37;;;;;;;;;;4995927;28;20225;-75
2022/09/24 06:37:00;;;;;;;16.77;15.10;;;;;;;;;;4975467;28;20228;-74
2022/09/24 06:39:28;;;;;;;17.23;15.83;;;;;;;;;;4975466;28;20251;-74
2022/09/24 06:41:54;;;;;;;17.77;16.27;;;;;;;;;;4976842;28;20229;-75
2022/09/24 06:44:20;;;;;;;18.67;17.00;;;;;;;;;;4980396;28;20217;-75
2022/09/24 06:46:48;;;;;;;20.87;19.17;;;;;;;;;;4994038;28;20231;-75
2022/09/24 06:49:18;;;;;;;17.13;15.80;;;;;;;;;;4974794;28;20220;-75
2022/09/24 06:51:49;;;;;;;16.50;15.30;;;;;;;;;;4992183;28;20311;-76
2022/09/24 06:54:19;;;;;;;15.83;14.53;;;;;;;;;;4992907;28;20220;-75
2022/09/24 06:56:45;;;;;;;15.80;14.57;;;;;;;;;;4985103;28;20229;-75
2022/09/24 06:59:13;;;;;;;15.43;14.13;;;;;;;;;;4959861;28;20225;-75
2022/09/24 07:01:39;;;;;;;15.90;14.50;;;;;;;;;;4992091;28;20718;-75
2022/09/24 07:04:04;;;;;;;15.70;14.30;;;;;;;;;;4976835;28;20246;-75
2022/09/24 07:07:28;;;;;;;14.07;13.07;;;;;;;;;;4995827;28;20224;-75
2022/09/24 07:09:20;;;;;;;15.63;14.37;;;;;;;;;;4990497;28;20224;-74
2022/09/24 07:11:46;;;;;;;15.93;14.53;;;;;;;;;;4976095;28;20701;-74
2022/09/24 07:14:14;;;;;;;25.73;23.23;;;;;;;;;;4994646;28;20245;-75
2022/09/24 07:16:42;;;;;;;20.67;18.87;;;;;;;;;;4990921;28;20303;-75
2022/09/24 07:19:07;;;;;;;16.67;15.00;;;;;;;;;;4974481;28;20229;-74
2022/09/24 07:21:33;;;;;;;15.27;14.00;;;;;;;;;;4979873;28;20225;-75
2022/09/24 07:23:59;;;;;;;15.73;14.37;;;;;;;;;;4994201;28;20213;-75
2022/09/24 07:26:27;;;;;;;15.43;14.03;;;;;;;;;;4979240;28;20224;-74
2022/09/24 07:28:58;;;;;;;14.67;13.27;;;;;;;;;;4974256;28;20256;-75
2022/09/24 07:31:23;;;;;;;15.30;14.00;;;;;;;;;;4963116;28;20244;-75
2022/09/24 07:33:49;;;;;;;15.67;14.13;;;;;;;;;;4982689;28;20643;-74
2022/09/24 07:36:14;;;;;;;17.23;15.53;;;;;;;;;;4979133;28;20239;-75
2022/09/24 07:38:42;;;;;;;15.68;14.32;;;;;;;;;;4976360;28;20667;-75
2022/09/24 07:41:08;;;;;;;18.53;16.90;;;;;;;;;;4974253;28;20234;-75
2022/09/24 07:43:34;;;;;;;16.52;15.23;;;;;;;;;;4976527;28;20246;-74
2022/09/24 07:46:02;;;;;;;15.27;13.98;;;;;;;;;;5006083;28;20216;-75
2022/09/24 07:48:30;;;;;;;15.38;14.05;;;;;;;;;;4977605;28;20225;-74
2022/09/24 07:50:56;;;;;;;15.75;14.45;;;;;;;;;;4995899;28;20252;-74
2022/09/24 07:53:26;;;;;;;14.85;13.65;;;;;;;;;;4958375;28;20221;-76
2022/09/24 07:55:51;;;;;;;16.38;15.10;;;;;;;;;;4973944;28;20259;-76
2022/09/24 07:58:20;;;;;;;14.90;13.52;;;;;;;;;;4992790;28;20838;-75
2022/09/24 08:00:46;;;;;;;14.37;13.23;;;;;;;;;;4978132;28;20699;-75
2022/09/24 08:03:14;;;;;;;14.70;13.30;;;;;;;;;;4980023;28;20248;-75
2022/09/24 08:05:44;;;;;;;15.70;14.17;;;;;;;;;;4976670;28;20259;-75
2022/09/24 08:08:12;;;;;;;50.37;46.20;;;;;;;;;;4987816;28;20963;-76
2022/09/24 08:10:38;;;;;;;31.45;28.92;;;;;;;;;;4945685;28;20248;-75
2022/09/24 08:13:07;;;;;;;16.05;14.63;;;;;;;;;;4993889;28;20298;-74
2022/09/24 08:15:33;;;;;;;17.20;15.68;;;;;;;;;;4978656;28;20229;-74
2022/09/24 08:18:04;;;;;;;15.53;14.03;;;;;;;;;;4975689;28;20233;-75
2022/09/24 08:20:30;;;;;;;16.93;15.43;;;;;;;;;;4992760;28;20242;-75
2022/09/24 08:23:09;;;;;;;16.70;15.27;;;;;;;;;;4990589;28;20227;-75
2022/09/24 08:25:37;;;;;;;16.83;15.40;;;;;;;;;;4992546;28;20228;-76
2022/09/24 08:28:06;;;;;;;17.38;15.80;;;;;;;;;;4993522;28;20225;-75
2022/09/24 08:30:34;;;;;;;18.87;16.87;;;;;;;;;;4962904;28;20307;-73
2022/09/24 08:33:03;;;;;;;18.17;16.40;;;;;;;;;;4966550;28;20332;-74
2022/09/24 08:35:33;;;;;;;18.20;16.52;;;;;;;;;;4993082;28;20221;-76
2022/09/24 08:38:00;;;;;;;18.07;16.47;;;;;;;;;;4977182;28;20316;-73
2022/09/24 08:40:33;;;;;;;19.23;17.42;;;;;;;;;;4994653;28;20247;-75
2022/09/24 08:43:35;;;;;;;19.42;17.70;;;;;;;;;;4983484;28;20299;-76
2022/09/24 08:49:02;;;;;;;17.73;15.82;;;;;;;;;;4979952;28;20233;-76
2022/09/24 08:51:27;;;;;;;17.33;15.82;;;;;;;;;;4997272;28;20221;-75
2022/09/24 08:54:09;;;;;;;17.30;15.80;;;;;;;;;;4979475;28;20224;-76
2022/09/24 08:56:36;;;;;;;16.67;15.23;;;;;;;;;;4979261;28;20216;-76
2022/09/24 08:59:04;;;;;;;16.90;15.30;;;;;;;;;;4961325;28;20240;-75
2022/09/24 09:01:37;;;;;;;16.67;15.23;;;;;;;;;;4990909;28;20233;-75
2022/09/24 09:04:20;;;;;;;17.50;15.70;;;;;;;;;;4992914;28;20224;-74
2022/09/24 09:07:05;;;;;;;18.52;16.83;;;;;;;;;;4978491;28;20721;-74
2022/09/24 09:09:48;;;;;;;17.38;15.63;;;;;;;;;;4994065;28;20220;-73
2022/09/24 09:12:39;;;;;;;17.88;16.27;;;;;;;;;;4991212;28;20224;-75
2022/09/24 09:15:19;;;;;;;17.92;16.33;;;;;;;;;;4998216;28;20749;-75
2022/09/24 09:17:51;;;;;;;17.48;15.75;;;;;;;;;;4974754;28;20228;-75
2022/09/24 09:20:20;;;;;;;17.95;16.35;;;;;;;;;;4979465;28;20218;-76
2022/09/24 09:22:52;;;;;;;18.17;16.42;;;;;;;;;;4978658;28;20287;-75
2022/09/24 09:25:18;;;;;;;18.60;16.90;;;;;;;;;;4984737;28;20224;-76
2022/09/24 09:27:44;;;;;;;18.08;16.45;;;;;;;;;;5010746;28;20233;-74
2022/09/24 09:30:13;;;;;;;18.40;16.60;;;;;;;;;;4996512;28;20768;-76
2022/09/24 09:33:03;;;;;;;18.10;16.40;;;;;;;;;;4996080;28;20280;-75
2022/09/24 09:35:42;;;;;;;19.70;17.80;;;;;;;;;;5008206;28;20244;-76
2022/09/24 09:38:16;;;;;;;18.83;17.23;;;;;;;;;;4973041;28;20232;-73
2022/09/24 09:40:56;;;;;;;19.85;17.98;;;;;;;;;;4957554;28;20812;-75
2022/09/24 09:43:25;;;;;;;18.05;16.45;;;;;;;;;;4938192;28;20220;-76
2022/09/24 09:46:11;;;;;;;18.40;16.70;;;;;;;;;;4963002;28;20224;-76
2022/09/24 09:48:44;;;;;;;18.55;17.05;;;;;;;;;;5002796;28;20315;-75
2022/09/24 09:51:18;;;;;;;17.65;16.05;;;;;;;;;;4996402;28;20228;-74
2022/09/24 09:53:53;;;;;;;18.23;16.70;;;;;;;;;;4977000;28;20247;-75
2022/09/24 09:56:24;;;;;;;19.17;17.17;;;;;;;;;;5012280;28;20243;-72
2022/09/24 09:58:59;;;;;;;34.53;28.52;;;;;;;;;;4960177;28;20232;-75
2022/09/24 10:01:30;;;;;;;24.83;20.13;;;;;;;;;;4991810;28;20322;-76
2022/09/24 10:03:56;;;;;;;19.67;17.77;;;;;;;;;;4995190;28;20235;-76
2022/09/24 10:06:31;;;;;;;20.08;18.27;;;;;;;;;;4976380;28;20750;-75
2022/09/24 10:09:26;;;;;;;20.03;17.87;;;;;;;;;;4984992;28;20220;-75
2022/09/24 10:11:51;;;;;;;31.77;28.23;;;;;;;;;;4972182;28;20654;-75
2022/09/24 10:14:19;;;;;;;24.77;22.40;;;;;;;;;;5010027;28;20730;-75
2022/09/24 10:16:49;;;;;;;23.17;20.80;;;;;;;;;;4980365;28;20301;-76
2022/09/24 10:19:24;;;;;;;24.05;21.95;;;;;;;;;;4958447;28;20221;-73
2022/09/24 10:21:53;;;;;;;23.73;21.63;;;;;;;;;;4965525;28;20228;-74
2022/09/24 10:24:21;;;;;;;23.85;21.92;;;;;;;;;;4946986;28;20220;-74
2022/09/24 10:26:46;;;;;;;25.58;23.27;;;;;;;;;;4943721;28;20244;-74
2022/09/24 10:32:03;;;;;;;25.52;23.13;;;;;;;;;;4998931;28;20268;-75
2022/09/24 10:34:28;;;;;;;23.67;21.67;;;;;;;;;;4993027;28;20220;-74
2022/09/24 10:37:01;;;;;;;25.95;23.15;;;;;;;;;;4978573;28;20247;-76
2022/09/24 10:39:33;;;;;;;24.42;22.27;;;;;;;;;;4989624;28;20228;-73
2022/09/24 10:42:01;;;;;;;24.65;22.20;;;;;;;;;;4975131;28;20344;-73
2022/09/24 10:44:36;;;;;;;25.88;23.45;;;;;;;;;;4965020;28;20224;-75
2022/09/24 10:47:29;;;;;;;24.40;22.30;;;;;;;;;;4993588;28;20224;-74
2022/09/24 10:50:12;;;;;;;24.60;22.13;;;;;;;;;;5006686;28;20258;-73
2022/09/24 10:52:52;;;;;;;24.63;22.55;;;;;;;;;;5000655;28;20225;-74
2022/09/24 10:55:54;;;;;;;22.30;20.58;;;;;;;;;;4995804;28;20752;-75
2022/09/24 10:58:27;;;;;;;24.10;21.90;;;;;;;;;;4991477;28;20236;-75
2022/09/24 11:01:10;;;;;;;24.45;21.92;;;;;;;;;;4995205;28;20243;-74
2022/09/24 11:03:45;;;;;;;22.92;20.83;;;;;;;;;;4993343;28;20697;-74
2022/09/24 11:06:51;;;;;;;23.00;20.67;;;;;;;;;;5007785;28;20362;-74
2022/09/24 11:09:28;;;;;;;20.95;18.98;;;;;;;;;;5008449;28;20216;-74
2022/09/24 11:12:14;;;;;;;21.27;19.48;;;;;;;;;;4991242;28;20236;-72
2022/09/24 11:15:13;;;;;;;23.13;21.02;;;;;;;;;;4995898;28;20303;-74
2022/09/24 11:18:02;;;;;;;19.30;17.35;;;;;;;;;;4958323;28;20224;-71
2022/09/24 11:21:00;;;;;;;19.13;17.42;;;;;;;;;;5008103;28;20224;-73
2022/09/24 11:23:46;;;;;;;35.50;27.77;;;;;;;;;;4930751;28;20267;-75
2022/09/24 11:26:45;;;;;;;19.85;18.00;;;;;;;;;;5008633;28;20860;-73
2022/09/24 11:29:16;;;;;;;19.23;17.20;;;;;;;;;;4993893;28;20232;-74
2022/09/24 11:31:47;;;;;;;17.58;16.20;;;;;;;;;;5007997;28;20654;-76
2022/09/24 11:34:36;;;;;;;17.77;16.27;;;;;;;;;;5009001;28;20220;-75
2022/09/24 11:37:30;;;;;;;18.17;16.55;;;;;;;;;;5008016;28;20235;-73
2022/09/24 11:40:02;;;;;;;19.05;17.35;;;;;;;;;;4959316;28;20228;-74
2022/09/24 11:42:35;;;;;;;20.92;18.90;;;;;;;;;;5006693;28;20239;-76
2022/09/24 11:45:10;;;;;;;20.27;18.55;;;;;;;;;;4975521;28;20236;-75
2022/09/24 11:47:56;;;;;;;20.10;18.15;;;;;;;;;;4977964;28;20224;-74
2022/09/24 11:50:45;;;;;;;21.10;18.90;;;;;;;;;;5009780;28;20232;-75
2022/09/24 11:53:24;;;;;;;20.80;18.85;;;;;;;;;;5007127;28;20221;-74
2022/09/24 11:56:00;;;;;;;19.08;17.33;;;;;;;;;;4989431;28;20224;-73
2022/09/24 11:58:28;;;;;;;20.05;18.30;;;;;;;;;;4976743;28;20282;-74
2022/09/24 12:01:05;;;;;;;19.20;17.58;;;;;;;;;;4995260;28;20224;-72
2022/09/24 12:03:55;;;;;;;20.50;18.70;;;;;;;;;;4995729;28;20224;-74
2022/09/24 12:06:34;;;;;;;20.13;18.08;;;;;;;;;;5005546;28;20225;-73
2022/09/24 12:09:06;;;;;;;20.50;18.63;;;;;;;;;;4978318;28;20228;-75
2022/09/24 12:11:33;;;;;;;21.23;19.35;;;;;;;;;;4996664;28;20251;-73
2022/09/24 12:14:18;;;;;;;21.10;18.98;;;;;;;;;;5013212;28;20219;-74
2022/09/24 12:16:47;;;;;;;22.15;20.25;;;;;;;;;;5011853;28;20216;-74
2022/09/24 12:19:13;;;;;;;22.70;20.50;;;;;;;;;;4964951;28;20229;-74
2022/09/24 12:21:40;;;;;;;22.70;20.70;;;;;;;;;;5011776;28;20678;-73
2022/09/24 12:24:31;;;;;;;22.85;20.88;;;;;;;;;;4997917;28;20248;-74
2022/09/24 12:27:03;;;;;;;23.55;21.50;;;;;;;;;;4983844;28;20320;-72
2022/09/24 12:35:27;;;;;;;26.30;23.80;;;;;;;;;;4995954;28;20362;-76
2022/09/24 12:38:09;;;;;;;25.75;23.55;;;;;;;;;;4991466;28;20611;-75
2022/09/24 12:41:06;;;;;;;27.02;24.55;;;;;;;;;;4963605;28;20774;-74
2022/09/24 12:44:02;;;;;;;26.52;24.08;;;;;;;;;;4973923;28;20230;-74
2022/09/24 12:46:32;;;;;;;29.33;26.50;;;;;;;;;;4988084;28;20225;-74
2022/09/24 12:48:58;;;;;;;28.35;25.63;;;;;;;;;;5011248;28;20283;-73
2022/09/24 12:51:34;;;;;;;26.50;24.10;;;;;;;;;;4991983;28;20921;-74
2022/09/24 12:54:05;;;;;;;25.95;23.67;;;;;;;;;;4974918;28;20691;-74
2022/09/24 12:56:31;;;;;;;26.87;24.33;;;;;;;;;;4979681;28;20915;-74
2022/09/24 12:58:57;;;;;;;26.88;24.02;;;;;;;;;;4979160;28;20228;-74
2022/09/24 13:01:22;;;;;;;24.70;22.60;;;;;;;;;;4983188;28;20251;-73
2022/09/24 13:04:12;;;;;;;26.05;23.55;;;;;;;;;;4983229;28;20260;-75
2022/09/24 13:06:42;;;;;;;24.23;21.77;;;;;;;;;;4994578;28;20217;-74
2022/09/24 13:09:37;;;;;;;23.23;21.02;;;;;;;;;;4977928;28;20263;-75
2022/09/24 13:12:17;;;;;;;18.92;17.52;;;;;;;;;;5009062;28;20232;-74
2022/09/24 13:15:03;;;;;;;20.33;18.60;;;;;;;;;;5011264;28;20231;-74
2022/09/24 13:17:29;;;;;;;16.50;14.90;;;;;;;;;;4946715;28;20236;-74
2022/09/24 13:19:57;;;;;;;16.17;14.73;;;;;;;;;;4975389;28;20715;-73
2022/09/24 13:22:30;;;;;;;15.82;14.02;;;;;;;;;;4964963;28;20221;-74
2022/09/24 13:25:10;;;;;;;14.10;12.95;;;;;;;;;;4979171;28;20597;-73
2022/09/24 13:27:42;;;;;;;14.90;13.40;;;;;;;;;;4983144;28;20235;-73
2022/09/24 13:30:08;;;;;;;14.50;13.10;;;;;;;;;;4995593;28;20688;-74
2022/09/24 13:32:39;;;;;;;15.30;13.90;;;;;;;;;;4979901;28;20244;-75
2022/09/24 13:35:14;;;;;;;15.93;14.52;;;;;;;;;;4997174;28;20240;-73
2022/09/24 13:37:41;;;;;;;15.68;14.20;;;;;;;;;;4996500;28;20837;-73
2022/09/24 13:40:20;;;;;;;15.88;14.68;;;;;;;;;;4963602;28;20777;-73
2022/09/24 13:43:32;;;;;;;16.40;14.80;;;;;;;;;;4983109;28;20320;-74
2022/09/24 13:45:57;;;;;;;21.92;16.35;;;;;;;;;;4937515;28;20282;-75
2022/09/24 13:48:37;;;;;;;18.40;16.65;;;;;;;;;;4977310;28;20232;-73
2022/09/24 13:51:09;;;;;;;17.35;15.88;;;;;;;;;;4977945;28;20220;-73
2022/09/24 13:54:17;;;;;;;16.88;15.38;;;;;;;;;;4944230;28;20224;-73
2022/09/24 13:56:54;;;;;;;17.27;15.68;;;;;;;;;;4949845;28;20224;-73
2022/09/24 13:59:22;;;;;;;16.60;15.23;;;;;;;;;;4990587;28;20233;-74
2022/09/24 14:01:52;;;;;;;15.63;14.15;;;;;;;;;;4977504;28;20233;-73
2022/09/24 14:04:20;;;;;;;13.65;12.65;;;;;;;;;;4966880;28;20231;-74
2022/09/24 14:06:51;;;;;;;14.05;12.68;;;;;;;;;;4995506;28;20223;-74
2022/09/24 14:09:33;;;;;;;14.70;13.40;;;;;;;;;;5001230;28;20243;-75
2022/09/24 14:12:02;;;;;;;12.93;11.88;;;;;;;;;;4993528;28;20312;-73
2022/09/24 14:14:33;;;;;;;10.23;9.40;;;;;;;;;;4993618;28;20229;-75
2022/09/24 14:17:12;;;;;;;10.25;9.35;;;;;;;;;;4977423;28;20229;-74
2022/09/24 14:19:40;;;;;;;9.35;8.55;;;;;;;;;;4979902;28;20232;-74
2022/09/24 14:22:14;;;;;;;9.13;8.43;;;;;;;;;;4965608;28;20320;-75
2022/09/24 14:25:09;;;;;;;9.85;8.88;;;;;;;;;;4963029;28;20229;-74
2022/09/24 14:27:43;;;;;;;9.35;8.60;;;;;;;;;;4977633;28;20225;-75
2022/09/24 14:30:25;;;;;;;8.95;8.20;;;;;;;;;;4974891;28;20229;-74
2022/09/24 14:33:07;;;;;;;7.93;7.20;;;;;;;;;;4995112;28;20626;-74
2022/09/24 14:35:36;;;;;;;18.33;16.00;;;;;;;;;;4993124;28;20727;-74
2022/09/24 14:38:07;;;;;;;16.40;14.70;;;;;;;;;;4971215;28;20232;-73
2022/09/24 14:40:50;;;;;;;12.20;10.85;;;;;;;;;;5011053;28;20233;-73
2022/09/24 14:43:23;;;;;;;29.00;21.27;;;;;;;;;;4993219;28;20742;-75
2022/09/24 14:45:51;;;;;;;15.73;13.93;;;;;;;;;;4989396;28;20255;-73
2022/09/24 14:48:32;;;;;;;36.08;30.20;;;;;;;;;;4979344;28;20217;-74
2022/09/24 14:51:00;;;;;;;15.85;14.27;;;;;;;;;;4975798;28;20702;-75
2022/09/24 14:53:32;;;;;;;8.95;7.85;;;;;;;;;;4959314;28;20237;-74
2022/09/24 14:56:33;;;;;;;7.88;7.18;;;;;;;;;;4993987;28;20235;-72
2022/09/24 14:59:01;;;;;;;7.40;6.80;;;;;;;;;;4980132;28;20233;-74
2022/09/24 15:01:33;;;;;;;7.70;7.10;;;;;;;;;;4994913;28;20817;-73
2022/09/24 15:04:01;;;;;;;7.20;6.60;;;;;;;;;;4995218;28;20217;-74
2022/09/24 15:06:33;;;;;;;7.95;7.35;;;;;;;;;;4990163;28;20275;-76
2022/09/24 15:09:26;;;;;;;8.68;8.02;;;;;;;;;;4976777;28;20283;-74